sensor_id;sensor_type;location;lat;lon;timestamp;temperature;humidity
22185;DHT22;11258;52.516;13.318;2023-06-26T00:02:17;23.00;99.90
22185;DHT22;11258;52.516;13.318;2023-06-26T00:04:43;22.90;99.90
22185;DHT22;11258;52.516;13.318;2023-06-26T00:07:10;22.90;99.90
22185;DHT22;11258;52.516;13.318;2023-06-26T00:09:36;22.90;99.90
22185;DHT22;11258;52.516;13.318;2023-06-26T00:12:02;22.90;99.90
22185;DHT22;11258;52.516;13.318;2023-06-26T00:14:28;22.90;99.90
22185;DHT22;11258;52.516;13.318;2023-06-26T00:16:53;22.90;99.90
22185;DHT22;11258;52.516;13.318;2023-06-26T00:19:19;22.90;99.90
22185;DHT22;11258;52.516;13.318;2023-06-26T00:21:45;22.80;99.90
22185;DHT22;11258;52.516;13.318;2023-06-26T00:24:16;22.80;99.90
22185;DHT22;11258;52.516;13.318;2023-06-26T00:26:42;22.70;99.90
22185;DHT22;11258;52.516;13.318;2023-06-26T00:29:08;22.70;99.90
22185;DHT22;11258;52.516;13.318;2023-06-26T00:31:33;22.70;99.90
22185;DHT22;11258;52.516;13.318;2023-06-26T00:34:00;22.70;99.90
22185;DHT22;11258;52.516;13.318;2023-06-26T00:36:26;22.80;99.90
22185;DHT22;11258;52.516;13.318;2023-06-26T00:38:52;22.70;99.90
22185;DHT22;11258;52.516;13.318;2023-06-26T00:41:18;22.80;99.90
22185;DHT22;11258;52.516;13.318;2023-06-26T00:43:44;22.80;99.90
22185;DHT22;11258;52.516;13.318;2023-06-26T00:46:12;22.80;99.90
22185;DHT22;11258;52.516;13.318;2023-06-26T00:48:39;22.90;99.90
22185;DHT22;11258;52.516;13.318;2023-06-26T00:51:06;22.80;99.90
22185;DHT22;11258;52.516;13.318;2023-06-26T00:53:32;22.90;99.90
22185;DHT22;11258;52.516;13.318;2023-06-26T00:55:58;22.80;99.90
22185;DHT22;11258;52.516;13.318;2023-06-26T00:58:25;22.90;99.90
22185;DHT22;11258;52.516;13.318;2023-06-26T01:00:51;22.90;99.90
22185;DHT22;11258;52.516;13.318;2023-06-26T01:03:18;22.90;99.90
22185;DHT22;11258;52.516;13.318;2023-06-26T01:05:44;22.80;99.90
22185;DHT22;11258;52.516;13.318;2023-06-26T01:08:12;22.80;99.90
22185;DHT22;11258;52.516;13.318;2023-06-26T01:10:39;22.80;99.90
22185;DHT22;11258;52.516;13.318;2023-06-26T01:13:05;22.70;99.90
22185;DHT22;11258;52.516;13.318;2023-06-26T01:15:31;22.60;99.90
22185;DHT22;11258;52.516;13.318;2023-06-26T01:17:58;22.60;99.90
22185;DHT22;11258;52.516;13.318;2023-06-26T01:20:25;22.70;99.90
22185;DHT22;11258;52.516;13.318;2023-06-26T01:27:50;22.70;99.90
22185;DHT22;11258;52.516;13.318;2023-06-26T01:30:19;22.70;99.90
22185;DHT22;11258;52.516;13.318;2023-06-26T01:32:45;22.70;99.90
22185;DHT22;11258;52.516;13.318;2023-06-26T01:35:12;22.70;99.90
22185;DHT22;11258;52.516;13.318;2023-06-26T01:37:37;22.70;99.90
22185;DHT22;11258;52.516;13.318;2023-06-26T01:40:03;22.60;99.90
22185;DHT22;11258;52.516;13.318;2023-06-26T01:42:35;22.50;99.90
22185;DHT22;11258;52.516;13.318;2023-06-26T01:45:12;22.50;99.90
22185;DHT22;11258;52.516;13.318;2023-06-26T01:47:44;22.60;99.90
22185;DHT22;11258;52.516;13.318;2023-06-26T01:50:21;22.60;99.90
22185;DHT22;11258;52.516;13.318;2023-06-26T01:53:03;22.70;99.90
22185;DHT22;11258;52.516;13.318;2023-06-26T01:55:42;22.70;99.90
22185;DHT22;11258;52.516;13.318;2023-06-26T01:58:10;22.60;99.90
22185;DHT22;11258;52.516;13.318;2023-06-26T02:00:36;22.60;99.90
22185;DHT22;11258;52.516;13.318;2023-06-26T02:03:02;22.60;99.90
22185;DHT22;11258;52.516;13.318;2023-06-26T02:05:30;22.70;99.90
22185;DHT22;11258;52.516;13.318;2023-06-26T02:07:56;22.70;99.90
22185;DHT22;11258;52.516;13.318;2023-06-26T02:10:22;22.70;99.90
22185;DHT22;11258;52.516;13.318;2023-06-26T02:12:47;22.70;99.90
22185;DHT22;11258;52.516;13.318;2023-06-26T02:15:13;22.70;99.90
22185;DHT22;11258;52.516;13.318;2023-06-26T02:17:39;22.70;99.90
22185;DHT22;11258;52.516;13.318;2023-06-26T02:20:05;22.70;99.90
22185;DHT22;11258;52.516;13.318;2023-06-26T02:22:31;22.60;99.90
22185;DHT22;11258;52.516;13.318;2023-06-26T02:24:57;22.50;99.90
22185;DHT22;11258;52.516;13.318;2023-06-26T02:27:22;22.50;99.90
22185;DHT22;11258;52.516;13.318;2023-06-26T02:29:48;22.60;99.90
22185;DHT22;11258;52.516;13.318;2023-06-26T02:32:14;22.50;99.90
22185;DHT22;11258;52.516;13.318;2023-06-26T02:34:39;22.60;99.90
22185;DHT22;11258;52.516;13.318;2023-06-26T02:37:05;22.60;99.90
22185;DHT22;11258;52.516;13.318;2023-06-26T02:39:35;22.40;99.90
22185;DHT22;11258;52.516;13.318;2023-06-26T02:42:01;22.50;99.90
22185;DHT22;11258;52.516;13.318;2023-06-26T02:44:26;22.50;99.90
22185;DHT22;11258;52.516;13.318;2023-06-26T02:46:52;22.50;99.90
22185;DHT22;11258;52.516;13.318;2023-06-26T02:49:17;22.40;99.90
22185;DHT22;11258;52.516;13.318;2023-06-26T02:51:43;22.50;99.90
22185;DHT22;11258;52.516;13.318;2023-06-26T02:54:09;22.50;99.90
22185;DHT22;11258;52.516;13.318;2023-06-26T02:56:34;22.50;99.90
22185;DHT22;11258;52.516;13.318;2023-06-26T02:59:00;22.50;99.90
22185;DHT22;11258;52.516;13.318;2023-06-26T03:01:26;22.40;99.90
22185;DHT22;11258;52.516;13.318;2023-06-26T03:03:51;22.40;99.90
22185;DHT22;11258;52.516;13.318;2023-06-26T03:06:18;22.40;99.90
22185;DHT22;11258;52.516;13.318;2023-06-26T03:08:43;22.40;99.90
22185;DHT22;11258;52.516;13.318;2023-06-26T03:11:09;22.40;99.90
22185;DHT22;11258;52.516;13.318;2023-06-26T03:13:36;22.30;99.90
22185;DHT22;11258;52.516;13.318;2023-06-26T03:16:02;22.20;99.90
22185;DHT22;11258;52.516;13.318;2023-06-26T03:18:28;22.20;99.90
22185;DHT22;11258;52.516;13.318;2023-06-26T03:20:55;22.20;99.90
22185;DHT22;11258;52.516;13.318;2023-06-26T03:23:21;22.20;99.90
22185;DHT22;11258;52.516;13.318;2023-06-26T03:25:48;22.20;99.90
22185;DHT22;11258;52.516;13.318;2023-06-26T03:28:14;22.20;99.90
22185;DHT22;11258;52.516;13.318;2023-06-26T03:30:39;22.20;99.90
22185;DHT22;11258;52.516;13.318;2023-06-26T03:33:05;22.20;99.90
22185;DHT22;11258;52.516;13.318;2023-06-26T03:35:31;22.40;99.90
22185;DHT22;11258;52.516;13.318;2023-06-26T03:37:57;22.30;99.90
22185;DHT22;11258;52.516;13.318;2023-06-26T03:40:23;22.40;99.90
22185;DHT22;11258;52.516;13.318;2023-06-26T03:42:49;22.30;99.90
22185;DHT22;11258;52.516;13.318;2023-06-26T03:45:14;22.50;99.90
22185;DHT22;11258;52.516;13.318;2023-06-26T03:47:40;22.50;99.90
22185;DHT22;11258;52.516;13.318;2023-06-26T03:50:06;22.70;99.90
22185;DHT22;11258;52.516;13.318;2023-06-26T03:52:31;23.30;99.90
22185;DHT22;11258;52.516;13.318;2023-06-26T03:54:58;23.60;99.90
22185;DHT22;11258;52.516;13.318;2023-06-26T03:57:24;24.10;99.90
22185;DHT22;11258;52.516;13.318;2023-06-26T03:59:50;25.00;99.90
22185;DHT22;11258;52.516;13.318;2023-06-26T04:02:16;25.80;99.90
22185;DHT22;11258;52.516;13.318;2023-06-26T04:04:41;26.40;99.90
22185;DHT22;11258;52.516;13.318;2023-06-26T04:07:07;26.90;99.90
22185;DHT22;11258;52.516;13.318;2023-06-26T04:09:32;27.60;99.90
22185;DHT22;11258;52.516;13.318;2023-06-26T04:11:58;27.80;99.90
22185;DHT22;11258;52.516;13.318;2023-06-26T04:14:24;27.00;99.90
22185;DHT22;11258;52.516;13.318;2023-06-26T04:16:49;26.50;99.90
22185;DHT22;11258;52.516;13.318;2023-06-26T04:19:15;26.00;99.90
22185;DHT22;11258;52.516;13.318;2023-06-26T04:21:41;25.50;99.90
22185;DHT22;11258;52.516;13.318;2023-06-26T04:24:06;24.90;99.90
22185;DHT22;11258;52.516;13.318;2023-06-26T04:26:32;24.60;99.90
22185;DHT22;11258;52.516;13.318;2023-06-26T04:28:58;24.50;99.90
22185;DHT22;11258;52.516;13.318;2023-06-26T04:31:24;24.40;99.90
22185;DHT22;11258;52.516;13.318;2023-06-26T04:33:50;24.30;99.90
22185;DHT22;11258;52.516;13.318;2023-06-26T04:36:17;24.40;99.90
22185;DHT22;11258;52.516;13.318;2023-06-26T04:38:43;24.40;99.90
22185;DHT22;11258;52.516;13.318;2023-06-26T04:41:08;24.10;99.90
22185;DHT22;11258;52.516;13.318;2023-06-26T04:43:34;24.10;99.90
22185;DHT22;11258;52.516;13.318;2023-06-26T04:46:01;24.00;99.90
22185;DHT22;11258;52.516;13.318;2023-06-26T04:48:27;24.30;99.90
22185;DHT22;11258;52.516;13.318;2023-06-26T04:50:54;24.40;99.90
22185;DHT22;11258;52.516;13.318;2023-06-26T04:53:23;24.40;99.90
22185;DHT22;11258;52.516;13.318;2023-06-26T04:55:49;24.50;99.90
22185;DHT22;11258;52.516;13.318;2023-06-26T04:58:15;25.00;99.90
22185;DHT22;11258;52.516;13.318;2023-06-26T05:00:41;25.70;99.90
22185;DHT22;11258;52.516;13.318;2023-06-26T05:03:11;25.80;99.90
22185;DHT22;11258;52.516;13.318;2023-06-26T05:05:37;26.10;99.90
22185;DHT22;11258;52.516;13.318;2023-06-26T05:08:20;26.40;99.90
22185;DHT22;11258;52.516;13.318;2023-06-26T05:10:46;26.00;99.90
22185;DHT22;11258;52.516;13.318;2023-06-26T05:13:12;25.60;99.90
22185;DHT22;11258;52.516;13.318;2023-06-26T05:15:41;25.30;99.90
22185;DHT22;11258;52.516;13.318;2023-06-26T05:18:07;25.30;99.90
22185;DHT22;11258;52.516;13.318;2023-06-26T05:20:34;24.90;99.90
22185;DHT22;11258;52.516;13.318;2023-06-26T05:23:04;24.80;99.90
22185;DHT22;11258;52.516;13.318;2023-06-26T05:25:30;24.40;99.90
22185;DHT22;11258;52.516;13.318;2023-06-26T05:27:57;24.40;99.90
22185;DHT22;11258;52.516;13.318;2023-06-26T05:30:24;24.50;99.90
22185;DHT22;11258;52.516;13.318;2023-06-26T05:32:52;24.50;99.90
22185;DHT22;11258;52.516;13.318;2023-06-26T05:35:19;24.50;99.90
22185;DHT22;11258;52.516;13.318;2023-06-26T05:37:48;24.30;99.90
22185;DHT22;11258;52.516;13.318;2023-06-26T05:40:14;24.30;99.90
22185;DHT22;11258;52.516;13.318;2023-06-26T05:42:40;24.50;99.90
22185;DHT22;11258;52.516;13.318;2023-06-26T05:45:06;26.40;99.90
22185;DHT22;11258;52.516;13.318;2023-06-26T05:47:32;27.90;99.90
22185;DHT22;11258;52.516;13.318;2023-06-26T05:49:58;29.70;99.90
22185;DHT22;11258;52.516;13.318;2023-06-26T05:52:24;30.60;99.90
22185;DHT22;11258;52.516;13.318;2023-06-26T05:54:50;31.70;99.90
22185;DHT22;11258;52.516;13.318;2023-06-26T05:57:16;31.40;99.90
22185;DHT22;11258;52.516;13.318;2023-06-26T05:59:43;32.10;99.90
22185;DHT22;11258;52.516;13.318;2023-06-26T06:02:09;32.40;99.90
22185;DHT22;11258;52.516;13.318;2023-06-26T06:04:34;33.10;99.90
22185;DHT22;11258;52.516;13.318;2023-06-26T06:07:00;33.80;99.90
22185;DHT22;11258;52.516;13.318;2023-06-26T06:09:26;33.60;99.90
22185;DHT22;11258;52.516;13.318;2023-06-26T06:11:51;34.10;99.90
22185;DHT22;11258;52.516;13.318;2023-06-26T06:14:17;34.90;99.90
22185;DHT22;11258;52.516;13.318;2023-06-26T06:16:43;35.90;99.90
22185;DHT22;11258;52.516;13.318;2023-06-26T06:19:08;35.20;99.90
22185;DHT22;11258;52.516;13.318;2023-06-26T06:21:36;35.10;99.90
22185;DHT22;11258;52.516;13.318;2023-06-26T06:24:02;34.50;99.90
22185;DHT22;11258;52.516;13.318;2023-06-26T06:26:28;34.30;99.90
22185;DHT22;11258;52.516;13.318;2023-06-26T06:28:54;34.30;99.90
22185;DHT22;11258;52.516;13.318;2023-06-26T06:31:19;34.60;99.90
22185;DHT22;11258;52.516;13.318;2023-06-26T06:33:45;35.60;99.40
22185;DHT22;11258;52.516;13.318;2023-06-26T06:36:11;36.10;97.60
22185;DHT22;11258;52.516;13.318;2023-06-26T06:38:37;36.50;95.80
22185;DHT22;11258;52.516;13.318;2023-06-26T06:41:02;35.60;96.20
22185;DHT22;11258;52.516;13.318;2023-06-26T06:43:28;36.90;96.00
22185;DHT22;11258;52.516;13.318;2023-06-26T06:45:53;36.50;94.00
22185;DHT22;11258;52.516;13.318;2023-06-26T06:48:19;36.10;94.00
22185;DHT22;11258;52.516;13.318;2023-06-26T06:50:45;36.60;93.40
22185;DHT22;11258;52.516;13.318;2023-06-26T06:53:10;37.70;93.50
22185;DHT22;11258;52.516;13.318;2023-06-26T06:55:36;38.20;91.90
22185;DHT22;11258;52.516;13.318;2023-06-26T06:58:02;38.00;90.30
22185;DHT22;11258;52.516;13.318;2023-06-26T07:00:28;37.60;90.70
22185;DHT22;11258;52.516;13.318;2023-06-26T07:02:53;36.30;91.40
22185;DHT22;11258;52.516;13.318;2023-06-26T07:05:19;36.80;91.40
22185;DHT22;11258;52.516;13.318;2023-06-26T07:07:45;36.10;91.80
22185;DHT22;11258;52.516;13.318;2023-06-26T07:10:13;37.30;91.40
22185;DHT22;11258;52.516;13.318;2023-06-26T07:12:39;37.90;90.00
22185;DHT22;11258;52.516;13.318;2023-06-26T07:15:06;37.60;89.60
22185;DHT22;11258;52.516;13.318;2023-06-26T07:17:32;36.40;90.30
22185;DHT22;11258;52.516;13.318;2023-06-26T07:19:59;37.40;90.40
22185;DHT22;11258;52.516;13.318;2023-06-26T07:22:25;36.50;90.40
22185;DHT22;11258;52.516;13.318;2023-06-26T07:24:51;37.00;90.70
22185;DHT22;11258;52.516;13.318;2023-06-26T07:27:17;37.20;89.30
22185;DHT22;11258;52.516;13.318;2023-06-26T07:29:46;37.70;89.20
22185;DHT22;11258;52.516;13.318;2023-06-26T07:32:11;38.50;87.90
22185;DHT22;11258;52.516;13.318;2023-06-26T07:34:37;39.10;86.10
22185;DHT22;11258;52.516;13.318;2023-06-26T07:37:03;38.80;85.30
22185;DHT22;11258;52.516;13.318;2023-06-26T07:39:29;38.70;84.10
22185;DHT22;11258;52.516;13.318;2023-06-26T07:41:55;38.20;83.50
22185;DHT22;11258;52.516;13.318;2023-06-26T07:44:21;38.00;85.10
22185;DHT22;11258;52.516;13.318;2023-06-26T07:46:47;38.20;83.80
22185;DHT22;11258;52.516;13.318;2023-06-26T07:49:13;38.30;84.20
22185;DHT22;11258;52.516;13.318;2023-06-26T07:51:38;39.20;82.40
22185;DHT22;11258;52.516;13.318;2023-06-26T07:54:04;39.10;80.20
22185;DHT22;11258;52.516;13.318;2023-06-26T07:56:30;38.30;82.00
22185;DHT22;11258;52.516;13.318;2023-06-26T07:58:55;38.80;80.90
22185;DHT22;11258;52.516;13.318;2023-06-26T08:01:23;38.50;81.20
22185;DHT22;11258;52.516;13.318;2023-06-26T08:03:49;39.60;79.20
22185;DHT22;11258;52.516;13.318;2023-06-26T08:06:15;38.30;80.80
22185;DHT22;11258;52.516;13.318;2023-06-26T08:08:41;39.60;80.50
22185;DHT22;11258;52.516;13.318;2023-06-26T08:11:06;40.60;78.90
22185;DHT22;11258;52.516;13.318;2023-06-26T08:13:32;41.30;75.00
22185;DHT22;11258;52.516;13.318;2023-06-26T08:15:58;41.10;75.00
22185;DHT22;11258;52.516;13.318;2023-06-26T08:18:23;41.10;73.80
22185;DHT22;11258;52.516;13.318;2023-06-26T08:20:49;41.30;73.70
22185;DHT22;11258;52.516;13.318;2023-06-26T08:23:15;40.80;72.50
22185;DHT22;11258;52.516;13.318;2023-06-26T08:25:40;40.30;72.70
22185;DHT22;11258;52.516;13.318;2023-06-26T08:28:06;39.30;72.60
22185;DHT22;11258;52.516;13.318;2023-06-26T08:30:32;37.70;74.70
22185;DHT22;11258;52.516;13.318;2023-06-26T08:32:58;37.60;74.20
22185;DHT22;11258;52.516;13.318;2023-06-26T08:35:23;37.30;74.70
22185;DHT22;11258;52.516;13.318;2023-06-26T08:37:49;37.00;74.70
22185;DHT22;11258;52.516;13.318;2023-06-26T08:40:18;37.10;74.90
22185;DHT22;11258;52.516;13.318;2023-06-26T08:42:46;36.80;74.80
22185;DHT22;11258;52.516;13.318;2023-06-26T08:45:12;37.00;76.00
22185;DHT22;11258;52.516;13.318;2023-06-26T08:47:39;37.40;76.30
22185;DHT22;11258;52.516;13.318;2023-06-26T08:50:12;38.60;75.20
22185;DHT22;11258;52.516;13.318;2023-06-26T08:52:59;38.90;75.30
22185;DHT22;11258;52.516;13.318;2023-06-26T08:55:31;38.00;74.60
22185;DHT22;11258;52.516;13.318;2023-06-26T08:57:59;37.80;74.50
22185;DHT22;11258;52.516;13.318;2023-06-26T09:00:25;36.70;75.50
22185;DHT22;11258;52.516;13.318;2023-06-26T09:02:50;36.40;77.40
22185;DHT22;11258;52.516;13.318;2023-06-26T09:05:16;36.00;77.80
22185;DHT22;11258;52.516;13.318;2023-06-26T09:07:42;36.10;78.00
22185;DHT22;11258;52.516;13.318;2023-06-26T09:10:08;35.50;77.50
22185;DHT22;11258;52.516;13.318;2023-06-26T09:12:34;34.70;79.10
22185;DHT22;11258;52.516;13.318;2023-06-26T09:15:01;34.50;80.20
22185;DHT22;11258;52.516;13.318;2023-06-26T09:17:30;35.50;80.00
22185;DHT22;11258;52.516;13.318;2023-06-26T09:19:56;34.90;79.00
22185;DHT22;11258;52.516;13.318;2023-06-26T09:22:22;35.70;79.80
22185;DHT22;11258;52.516;13.318;2023-06-26T09:24:48;35.40;77.80
22185;DHT22;11258;52.516;13.318;2023-06-26T09:27:14;36.10;79.00
22185;DHT22;11258;52.516;13.318;2023-06-26T09:29:39;36.90;78.90
22185;DHT22;11258;52.516;13.318;2023-06-26T09:32:07;36.20;76.10
22185;DHT22;11258;52.516;13.318;2023-06-26T09:34:33;35.90;76.90
22185;DHT22;11258;52.516;13.318;2023-06-26T09:36:59;34.80;78.50
22185;DHT22;11258;52.516;13.318;2023-06-26T09:39:30;34.70;79.20
22185;DHT22;11258;52.516;13.318;2023-06-26T09:41:56;34.60;81.10
22185;DHT22;11258;52.516;13.318;2023-06-26T09:44:23;34.10;82.50
22185;DHT22;11258;52.516;13.318;2023-06-26T09:46:48;34.20;82.90
22185;DHT22;11258;52.516;13.318;2023-06-26T09:49:14;34.20;83.90
22185;DHT22;11258;52.516;13.318;2023-06-26T09:51:42;33.70;85.00
22185;DHT22;11258;52.516;13.318;2023-06-26T09:54:08;33.60;85.20
22185;DHT22;11258;52.516;13.318;2023-06-26T09:56:34;33.80;84.60
22185;DHT22;11258;52.516;13.318;2023-06-26T09:59:02;33.40;85.80
22185;DHT22;11258;52.516;13.318;2023-06-26T10:01:29;33.90;87.30
22185;DHT22;11258;52.516;13.318;2023-06-26T10:03:55;34.30;85.60
22185;DHT22;11258;52.516;13.318;2023-06-26T10:06:35;34.70;86.10
22185;DHT22;11258;52.516;13.318;2023-06-26T10:09:03;34.70;84.50
22185;DHT22;11258;52.516;13.318;2023-06-26T10:11:40;34.50;86.00
22185;DHT22;11258;52.516;13.318;2023-06-26T10:14:07;34.10;85.30
22185;DHT22;11258;52.516;13.318;2023-06-26T10:16:35;33.60;86.70
22185;DHT22;11258;52.516;13.318;2023-06-26T10:19:06;33.90;86.40
22185;DHT22;11258;52.516;13.318;2023-06-26T10:21:34;34.20;87.00
22185;DHT22;11258;52.516;13.318;2023-06-26T10:24:00;34.50;86.60
22185;DHT22;11258;52.516;13.318;2023-06-26T10:26:28;33.80;86.20
22185;DHT22;11258;52.516;13.318;2023-06-26T10:28:55;34.10;87.10
22185;DHT22;11258;52.516;13.318;2023-06-26T10:31:25;34.10;86.50
22185;DHT22;11258;52.516;13.318;2023-06-26T10:33:52;34.30;88.10
22185;DHT22;11258;52.516;13.318;2023-06-26T10:36:19;34.40;85.10
22185;DHT22;11258;52.516;13.318;2023-06-26T10:38:55;33.20;85.90
22185;DHT22;11258;52.516;13.318;2023-06-26T10:41:22;33.10;88.10
22185;DHT22;11258;52.516;13.318;2023-06-26T10:44:05;33.20;88.10
22185;DHT22;11258;52.516;13.318;2023-06-26T10:46:54;32.90;88.10
22185;DHT22;11258;52.516;13.318;2023-06-26T10:49:27;32.50;89.80
22185;DHT22;11258;52.516;13.318;2023-06-26T10:51:53;33.10;90.10
22185;DHT22;11258;52.516;13.318;2023-06-26T10:54:21;33.50;89.10
22185;DHT22;11258;52.516;13.318;2023-06-26T10:56:48;33.10;88.40
22185;DHT22;11258;52.516;13.318;2023-06-26T11:01:43;33.60;88.20
22185;DHT22;11258;52.516;13.318;2023-06-26T11:04:09;33.70;87.90
22185;DHT22;11258;52.516;13.318;2023-06-26T11:06:39;33.10;88.60
22185;DHT22;11258;52.516;13.318;2023-06-26T11:14:26;33.80;88.70
22185;DHT22;11258;52.516;13.318;2023-06-26T11:16:58;33.90;87.20
22185;DHT22;11258;52.516;13.318;2023-06-26T11:19:26;33.70;86.80
22185;DHT22;11258;52.516;13.318;2023-06-26T11:21:57;33.70;87.50
22185;DHT22;11258;52.516;13.318;2023-06-26T11:24:23;33.50;87.20
22185;DHT22;11258;52.516;13.318;2023-06-26T11:26:49;32.90;88.00
22185;DHT22;11258;52.516;13.318;2023-06-26T11:29:15;32.90;89.50
22185;DHT22;11258;52.516;13.318;2023-06-26T11:31:41;32.80;88.30
22185;DHT22;11258;52.516;13.318;2023-06-26T11:34:09;32.60;88.90
22185;DHT22;11258;52.516;13.318;2023-06-26T11:36:38;32.50;89.50
22185;DHT22;11258;52.516;13.318;2023-06-26T11:39:05;32.70;90.30
22185;DHT22;11258;52.516;13.318;2023-06-26T11:41:32;33.00;89.30
22185;DHT22;11258;52.516;13.318;2023-06-26T11:44:05;33.20;89.50
22185;DHT22;11258;52.516;13.318;2023-06-26T11:46:32;33.50;90.00
22185;DHT22;11258;52.516;13.318;2023-06-26T11:48:59;33.50;88.50
22185;DHT22;11258;52.516;13.318;2023-06-26T11:51:27;33.40;89.00
22185;DHT22;11258;52.516;13.318;2023-06-26T11:53:53;33.30;88.40
22185;DHT22;11258;52.516;13.318;2023-06-26T11:56:19;33.10;88.50
22185;DHT22;11258;52.516;13.318;2023-06-26T11:59:07;33.10;88.90
22185;DHT22;11258;52.516;13.318;2023-06-26T12:01:36;33.30;88.30
22185;DHT22;11258;52.516;13.318;2023-06-26T12:04:07;32.50;89.10
22185;DHT22;11258;52.516;13.318;2023-06-26T12:06:38;32.40;89.50
22185;DHT22;11258;52.516;13.318;2023-06-26T12:09:06;32.20;90.00
22185;DHT22;11258;52.516;13.318;2023-06-26T12:11:34;32.50;90.10
22185;DHT22;11258;52.516;13.318;2023-06-26T12:14:00;32.70;90.30
22185;DHT22;11258;52.516;13.318;2023-06-26T12:16:30;32.60;89.30
22185;DHT22;11258;52.516;13.318;2023-06-26T12:19:04;32.60;90.00
22185;DHT22;11258;52.516;13.318;2023-06-26T12:24:09;32.80;90.50
22185;DHT22;11258;52.516;13.318;2023-06-26T12:26:36;32.80;89.70
22185;DHT22;11258;52.516;13.318;2023-06-26T12:29:11;32.90;90.20
22185;DHT22;11258;52.516;13.318;2023-06-26T12:31:50;33.00;89.80
22185;DHT22;11258;52.516;13.318;2023-06-26T12:34:20;32.80;90.50
22185;DHT22;11258;52.516;13.318;2023-06-26T12:36:50;32.80;90.20
22185;DHT22;11258;52.516;13.318;2023-06-26T12:39:22;32.50;90.40
22185;DHT22;11258;52.516;13.318;2023-06-26T12:41:48;32.40;90.90
22185;DHT22;11258;52.516;13.318;2023-06-26T12:44:21;32.30;91.00
22185;DHT22;11258;52.516;13.318;2023-06-26T12:46:53;32.30;91.00
22185;DHT22;11258;52.516;13.318;2023-06-26T12:49:19;32.20;91.10
22185;DHT22;11258;52.516;13.318;2023-06-26T12:51:46;32.40;91.60
22185;DHT22;11258;52.516;13.318;2023-06-26T12:54:11;32.40;91.30
22185;DHT22;11258;52.516;13.318;2023-06-26T12:56:37;32.50;91.70
22185;DHT22;11258;52.516;13.318;2023-06-26T12:59:02;32.40;91.50
22185;DHT22;11258;52.516;13.318;2023-06-26T13:01:28;32.20;91.40
22185;DHT22;11258;52.516;13.318;2023-06-26T13:03:54;32.10;91.80
22185;DHT22;11258;52.516;13.318;2023-06-26T13:06:20;32.10;91.50
22185;DHT22;11258;52.516;13.318;2023-06-26T13:08:47;32.20;91.70
22185;DHT22;11258;52.516;13.318;2023-06-26T13:11:12;32.20;91.50
22185;DHT22;11258;52.516;13.318;2023-06-26T13:13:38;32.20;91.60
22185;DHT22;11258;52.516;13.318;2023-06-26T13:16:04;32.20;91.70
22185;DHT22;11258;52.516;13.318;2023-06-26T13:18:30;31.90;91.70
22185;DHT22;11258;52.516;13.318;2023-06-26T13:20:56;31.90;91.90
22185;DHT22;11258;52.516;13.318;2023-06-26T13:23:21;31.80;91.90
22185;DHT22;11258;52.516;13.318;2023-06-26T13:25:47;31.80;91.90
22185;DHT22;11258;52.516;13.318;2023-06-26T13:28:12;31.90;92.20
22185;DHT22;11258;52.516;13.318;2023-06-26T13:30:38;31.70;92.20
22185;DHT22;11258;52.516;13.318;2023-06-26T13:33:03;31.70;92.50
22185;DHT22;11258;52.516;13.318;2023-06-26T13:35:29;31.70;92.50
22185;DHT22;11258;52.516;13.318;2023-06-26T13:37:55;31.40;92.40
22185;DHT22;11258;52.516;13.318;2023-06-26T13:40:20;31.30;92.80
22185;DHT22;11258;52.516;13.318;2023-06-26T13:42:46;31.20;92.90
22185;DHT22;11258;52.516;13.318;2023-06-26T13:45:11;31.20;93.00
22185;DHT22;11258;52.516;13.318;2023-06-26T13:47:37;31.20;93.40
22185;DHT22;11258;52.516;13.318;2023-06-26T13:50:07;31.30;93.40
22185;DHT22;11258;52.516;13.318;2023-06-26T13:52:33;31.50;93.30
22185;DHT22;11258;52.516;13.318;2023-06-26T13:54:59;31.60;93.40
22185;DHT22;11258;52.516;13.318;2023-06-26T13:57:24;31.70;93.50
22185;DHT22;11258;52.516;13.318;2023-06-26T13:59:50;31.80;93.30
22185;DHT22;11258;52.516;13.318;2023-06-26T14:02:15;31.80;93.20
22185;DHT22;11258;52.516;13.318;2023-06-26T14:04:41;31.80;93.30
22185;DHT22;11258;52.516;13.318;2023-06-26T14:07:07;31.80;93.50
22185;DHT22;11258;52.516;13.318;2023-06-26T14:09:32;31.80;93.80
22185;DHT22;11258;52.516;13.318;2023-06-26T14:11:58;31.60;94.00
22185;DHT22;11258;52.516;13.318;2023-06-26T14:14:24;31.20;94.90
22185;DHT22;11258;52.516;13.318;2023-06-26T14:16:50;30.70;97.00
22185;DHT22;11258;52.516;13.318;2023-06-26T14:19:16;30.00;99.90
22185;DHT22;11258;52.516;13.318;2023-06-26T14:21:43;29.00;99.90
22185;DHT22;11258;52.516;13.318;2023-06-26T14:24:08;27.50;99.90
22185;DHT22;11258;52.516;13.318;2023-06-26T14:26:34;26.10;99.90
22185;DHT22;11258;52.516;13.318;2023-06-26T14:29:00;24.60;99.90
22185;DHT22;11258;52.516;13.318;2023-06-26T14:31:26;23.80;99.90
22185;DHT22;11258;52.516;13.318;2023-06-26T14:33:52;23.00;99.90
22185;DHT22;11258;52.516;13.318;2023-06-26T14:36:17;23.10;99.90
22185;DHT22;11258;52.516;13.318;2023-06-26T14:38:44;23.20;99.90
22185;DHT22;11258;52.516;13.318;2023-06-26T14:41:10;23.40;99.90
22185;DHT22;11258;52.516;13.318;2023-06-26T14:43:36;23.40;99.90
22185;DHT22;11258;52.516;13.318;2023-06-26T14:46:02;23.40;99.90
22185;DHT22;11258;52.516;13.318;2023-06-26T14:48:28;23.60;99.90
22185;DHT22;11258;52.516;13.318;2023-06-26T14:50:53;23.60;99.90
22185;DHT22;11258;52.516;13.318;2023-06-26T14:53:19;23.80;99.90
22185;DHT22;11258;52.516;13.318;2023-06-26T14:55:44;23.80;99.90
22185;DHT22;11258;52.516;13.318;2023-06-26T14:58:10;23.90;99.90
22185;DHT22;11258;52.516;13.318;2023-06-26T15:00:36;23.70;99.90
22185;DHT22;11258;52.516;13.318;2023-06-26T15:03:01;23.60;99.90
22185;DHT22;11258;52.516;13.318;2023-06-26T15:05:27;23.50;99.90
22185;DHT22;11258;52.516;13.318;2023-06-26T15:07:52;23.40;99.90
22185;DHT22;11258;52.516;13.318;2023-06-26T15:10:18;23.50;99.90
22185;DHT22;11258;52.516;13.318;2023-06-26T15:12:44;23.50;99.90
22185;DHT22;11258;52.516;13.318;2023-06-26T15:15:09;23.50;99.90
22185;DHT22;11258;52.516;13.318;2023-06-26T15:17:35;23.50;99.90
22185;DHT22;11258;52.516;13.318;2023-06-26T15:20:01;23.40;99.90
22185;DHT22;11258;52.516;13.318;2023-06-26T15:22:27;23.50;99.90
22185;DHT22;11258;52.516;13.318;2023-06-26T15:24:53;23.70;99.90
22185;DHT22;11258;52.516;13.318;2023-06-26T15:27:19;23.90;99.90
22185;DHT22;11258;52.516;13.318;2023-06-26T15:29:45;23.90;99.90